createdAt,value
2022-12-31T00:00:02.769Z,11.50
2022-12-31T00:01:08.791Z,11.50
2022-12-31T00:02:10.883Z,11.50
2022-12-31T00:03:13.573Z,11.50
2022-12-31T00:04:15.762Z,11.50
2022-12-31T00:05:18.052Z,11.50
2022-12-31T00:06:26.982Z,11.50
2022-12-31T00:07:29.021Z,11.40
2022-12-31T00:08:31.004Z,11.40
2022-12-31T00:09:33.264Z,11.40
2022-12-31T00:10:41.375Z,11.40
2022-12-31T00:11:43.530Z,11.40
2022-12-31T00:12:45.460Z,11.40
2022-12-31T00:13:48.199Z,11.40
2022-12-31T00:14:50.211Z,11.40
2022-12-31T00:15:54.387Z,11.40
2022-12-31T00:16:56.413Z,11.40
2022-12-31T00:17:58.388Z,11.40
2022-12-31T00:19:01.789Z,11.40
2022-12-31T00:20:06.819Z,11.40
2022-12-31T00:21:09.828Z,11.40
2022-12-31T00:22:12.518Z,11.50
2022-12-31T00:23:14.572Z,11.50
2022-12-31T00:24:16.527Z,11.50
2022-12-31T00:25:18.878Z,11.50
2022-12-31T00:26:24.985Z,11.50
2022-12-31T00:27:27.003Z,11.50
2022-12-31T00:28:29.198Z,11.50
2022-12-31T00:29:31.262Z,11.50
2022-12-31T00:30:34.492Z,11.50
2022-12-31T00:31:38.555Z,11.50
2022-12-31T00:32:40.887Z,11.50
2022-12-31T00:33:43.665Z,11.50
2022-12-31T00:34:45.913Z,11.50
2022-12-31T00:35:47.916Z,11.50
2022-12-31T00:36:49.891Z,11.50
2022-12-31T00:37:53.310Z,11.50
2022-12-31T00:38:58.725Z,11.50
2022-12-31T00:40:01.019Z,11.50
2022-12-31T00:41:04.778Z,11.40
2022-12-31T00:42:06.859Z,11.40
2022-12-31T00:43:08.856Z,11.40
2022-12-31T00:44:13.978Z,11.40
2022-12-31T00:45:16.043Z,11.30
2022-12-31T00:46:19.028Z,11.30
2022-12-31T00:47:21.045Z,11.30
2022-12-31T00:48:23.814Z,11.30
2022-12-31T00:49:25.767Z,11.30
2022-12-31T00:50:27.759Z,11.30
2022-12-31T00:51:30.631Z,11.30
2022-12-31T00:52:32.634Z,11.30
2022-12-31T00:53:37.888Z,11.30
2022-12-31T00:54:42.611Z,11.30
2022-12-31T00:55:44.600Z,11.20
2022-12-31T00:56:46.574Z,11.20
2022-12-31T00:57:48.772Z,11.30
2022-12-31T00:58:51.601Z,11.20
2022-12-31T00:59:53.628Z,11.30
2022-12-31T01:00:55.733Z,11.20
2022-12-31T01:01:57.981Z,11.30
2022-12-31T01:03:01.697Z,11.30
2022-12-31T01:04:15.626Z,11.30
2022-12-31T01:05:17.680Z,11.30
2022-12-31T01:06:20.375Z,11.40
2022-12-31T01:07:22.410Z,11.30
2022-12-31T01:08:24.444Z,11.40
2022-12-31T01:09:27.116Z,11.40
2022-12-31T01:10:47.585Z,11.40
2022-12-31T01:11:51.524Z,11.40
2022-12-31T01:12:53.526Z,11.30
2022-12-31T01:14:03.829Z,11.40
2022-12-31T01:15:06.457Z,11.30
2022-12-31T01:16:11.049Z,11.30
2022-12-31T01:17:13.787Z,11.30
2022-12-31T01:18:15.840Z,11.30
2022-12-31T01:19:21.936Z,11.20
2022-12-31T01:20:23.995Z,11.20
2022-12-31T01:21:27.412Z,11.20
2022-12-31T01:22:29.467Z,11.20
2022-12-31T01:23:32.330Z,11.20
2022-12-31T01:24:34.328Z,11.10
2022-12-31T01:25:38.280Z,11.10
2022-12-31T01:26:40.284Z,11.10
2022-12-31T01:27:42.274Z,11.10
2022-12-31T01:28:44.619Z,11.10
2022-12-31T01:29:47.189Z,11.00
2022-12-31T01:30:49.265Z,11.00
2022-12-31T01:31:51.427Z,11.00
2022-12-31T01:32:53.456Z,11.00
2022-12-31T01:33:55.839Z,11.00
2022-12-31T01:34:57.858Z,11.00
2022-12-31T01:36:08.432Z,11.00
2022-12-31T01:37:10.595Z,11.10
2022-12-31T01:38:13.169Z,11.10
2022-12-31T01:39:15.299Z,11.10
2022-12-31T01:40:17.451Z,11.10
2022-12-31T01:41:25.854Z,11.20
2022-12-31T01:42:27.882Z,11.20
2022-12-31T01:43:49.861Z,11.20
2022-12-31T01:44:54.831Z,11.30
2022-12-31T01:47:22.322Z,11.30
2022-12-31T01:48:26.981Z,11.40
2022-12-31T01:49:52.909Z,11.40
2022-12-31T01:50:55.918Z,11.50
2022-12-31T01:52:22.727Z,11.60
2022-12-31T01:53:26.099Z,11.60
2022-12-31T01:54:31.041Z,11.70
2022-12-31T01:55:57.977Z,11.70
2022-12-31T01:57:00.489Z,11.80
2022-12-31T01:58:11.830Z,11.80
2022-12-31T01:59:17.694Z,11.90
2022-12-31T02:00:20.162Z,11.90
2022-12-31T02:01:28.502Z,11.90
2022-12-31T02:02:30.804Z,11.90
2022-12-31T02:03:33.044Z,12.00
2022-12-31T02:04:38.291Z,12.00
2022-12-31T02:05:55.983Z,12.10
2022-12-31T02:07:04.626Z,12.10
2022-12-31T02:08:06.993Z,12.10
2022-12-31T02:09:12.399Z,12.20
2022-12-31T02:10:14.552Z,12.10
2022-12-31T02:11:28.687Z,12.10
2022-12-31T02:12:30.882Z,12.00
2022-12-31T02:13:32.995Z,11.90
2022-12-31T02:14:44.628Z,11.90
2022-12-31T02:16:03.179Z,11.80
2022-12-31T02:17:05.167Z,11.80
2022-12-31T02:18:18.176Z,11.80
2022-12-31T02:19:44.774Z,11.80
2022-12-31T02:21:22.915Z,11.80
2022-12-31T02:22:50.757Z,11.80
2022-12-31T02:24:30.126Z,11.70
2022-12-31T02:25:41.453Z,11.70
2022-12-31T02:27:22.405Z,11.70
2022-12-31T02:28:36.647Z,11.70
2022-12-31T02:29:56.475Z,11.70
2022-12-31T02:31:24.306Z,11.70
2022-12-31T02:32:37.134Z,11.70
2022-12-31T02:33:55.010Z,11.70
2022-12-31T02:35:03.383Z,11.70
2022-12-31T02:36:21.899Z,11.70
2022-12-31T02:37:28.660Z,11.70
2022-12-31T02:38:34.314Z,11.70
2022-12-31T02:39:37.767Z,11.70
2022-12-31T02:40:40.001Z,11.60
2022-12-31T02:41:52.115Z,11.60
2022-12-31T02:42:55.693Z,11.60
2022-12-31T02:43:57.935Z,11.60
2022-12-31T02:45:00.005Z,11.60
2022-12-31T02:46:22.200Z,11.60
2022-12-31T02:47:38.642Z,11.60
2022-12-31T02:48:55.003Z,11.60
2022-12-31T02:50:05.813Z,11.60
2022-12-31T02:51:39.808Z,11.50
2022-12-31T02:53:18.865Z,11.50
2022-12-31T02:54:48.995Z,11.50
2022-12-31T02:56:18.845Z,11.50
2022-12-31T02:57:40.457Z,11.50
2022-12-31T02:59:23.230Z,11.50
2022-12-31T03:00:43.850Z,11.50
2022-12-31T03:02:12.186Z,11.50
2022-12-31T03:03:14.310Z,11.40
2022-12-31T03:04:33.715Z,11.30
2022-12-31T03:05:41.581Z,11.30
2022-12-31T03:06:43.868Z,11.20
2022-12-31T03:07:46.315Z,11.20
2022-12-31T03:09:06.957Z,11.10
2022-12-31T03:10:09.877Z,11.10
2022-12-31T03:11:31.916Z,11.10
2022-12-31T03:12:50.237Z,11.10
2022-12-31T03:13:54.135Z,11.10
2022-12-31T03:14:56.711Z,11.10
2022-12-31T03:15:58.769Z,11.10
2022-12-31T03:17:00.797Z,11.10
2022-12-31T03:18:12.227Z,11.20
2022-12-31T03:19:32.683Z,11.20
2022-12-31T03:21:19.980Z,11.20
2022-12-31T03:22:27.791Z,11.10
2022-12-31T03:23:50.279Z,11.20
2022-12-31T03:25:10.721Z,11.20
2022-12-31T03:26:13.146Z,11.20
2022-12-31T03:27:15.186Z,11.20
2022-12-31T03:28:20.065Z,11.20
2022-12-31T03:29:22.207Z,11.20
2022-12-31T03:30:25.330Z,11.30
2022-12-31T03:31:27.603Z,11.30
2022-12-31T03:32:29.654Z,11.30
2022-12-31T03:33:34.156Z,11.30
2022-12-31T03:34:36.245Z,11.30
2022-12-31T03:35:40.658Z,11.40
2022-12-31T03:36:42.603Z,11.30
2022-12-31T03:37:44.568Z,11.30
2022-12-31T03:38:51.220Z,11.40
2022-12-31T03:39:54.808Z,11.40
2022-12-31T03:40:56.938Z,11.40
2022-12-31T03:41:58.995Z,11.40
2022-12-31T03:43:01.076Z,11.40
2022-12-31T03:44:03.070Z,11.40
2022-12-31T03:45:06.138Z,11.40
2022-12-31T03:46:08.077Z,11.40
2022-12-31T03:47:10.189Z,11.40
2022-12-31T03:48:13.210Z,11.40
2022-12-31T03:49:20.258Z,11.40
2022-12-31T03:50:22.328Z,11.40
2022-12-31T03:51:24.294Z,11.40
2022-12-31T03:52:26.279Z,11.40
2022-12-31T03:53:28.328Z,11.40
2022-12-31T03:54:31.193Z,11.40
2022-12-31T03:55:33.275Z,11.40
2022-12-31T03:56:35.278Z,11.40
2022-12-31T03:57:38.442Z,11.30
2022-12-31T03:58:40.483Z,11.30
2022-12-31T03:59:42.605Z,11.30
2022-12-31T04:00:44.585Z,11.30
2022-12-31T04:01:46.827Z,11.30
2022-12-31T04:02:50.088Z,11.30
2022-12-31T04:03:52.263Z,11.30
2022-12-31T04:04:54.394Z,11.40
2022-12-31T04:05:56.403Z,11.40
2022-12-31T04:06:58.361Z,11.40
2022-12-31T04:08:01.635Z,11.40
2022-12-31T04:09:04.020Z,11.40
2022-12-31T04:10:08.393Z,11.40
2022-12-31T04:11:11.414Z,11.40
2022-12-31T04:12:15.806Z,11.40
2022-12-31T04:13:17.835Z,11.40
2022-12-31T04:14:20.073Z,11.50
2022-12-31T04:15:22.425Z,11.40
2022-12-31T04:16:24.434Z,11.40
2022-12-31T04:17:27.064Z,11.40
2022-12-31T04:18:29.023Z,11.40
2022-12-31T04:19:31.042Z,11.40
2022-12-31T04:20:33.049Z,11.40
2022-12-31T04:21:35.609Z,11.40
2022-12-31T04:22:38.073Z,11.40
2022-12-31T04:23:40.155Z,11.40
2022-12-31T04:24:43.337Z,11.40
2022-12-31T04:25:45.397Z,11.40
2022-12-31T04:26:47.517Z,11.40
2022-12-31T04:27:49.521Z,11.40
2022-12-31T04:28:51.586Z,11.40
2022-12-31T04:29:53.685Z,11.40
2022-12-31T04:30:55.851Z,11.40
2022-12-31T04:31:58.046Z,11.40
2022-12-31T04:33:02.065Z,11.40
2022-12-31T04:34:07.098Z,11.50
2022-12-31T04:35:11.785Z,11.50
2022-12-31T04:36:13.795Z,11.50
2022-12-31T04:37:15.835Z,11.60
2022-12-31T04:38:17.859Z,11.60
2022-12-31T04:39:19.951Z,11.60
2022-12-31T04:40:21.903Z,11.60
2022-12-31T04:41:27.008Z,11.60
2022-12-31T04:42:29.044Z,11.70
2022-12-31T04:43:31.090Z,11.70
2022-12-31T04:44:34.974Z,11.70
2022-12-31T04:45:37.441Z,11.70
2022-12-31T04:46:39.460Z,11.80
2022-12-31T04:47:41.529Z,11.80
2022-12-31T04:48:44.867Z,11.80
2022-12-31T04:49:46.814Z,11.80
2022-12-31T04:50:48.827Z,11.80
2022-12-31T04:51:50.835Z,11.80
2022-12-31T04:52:52.842Z,11.90
2022-12-31T04:53:55.101Z,11.90
2022-12-31T04:54:57.058Z,11.80
2022-12-31T04:55:59.155Z,11.80
2022-12-31T04:57:01.117Z,11.80
2022-12-31T04:58:03.127Z,11.80
2022-12-31T04:59:05.455Z,11.80
2022-12-31T05:00:08.201Z,11.80
2022-12-31T05:01:10.854Z,11.80
2022-12-31T05:02:13.074Z,11.80
2022-12-31T05:03:15.887Z,11.80
2022-12-31T05:04:17.874Z,11.80
2022-12-31T05:05:19.898Z,11.80
2022-12-31T05:06:23.732Z,11.80
2022-12-31T05:07:25.796Z,11.80
2022-12-31T05:08:27.778Z,11.80
2022-12-31T05:09:31.025Z,11.80
2022-12-31T05:10:33.108Z,11.80
2022-12-31T05:11:35.911Z,11.80
2022-12-31T05:12:38.792Z,11.90
2022-12-31T05:13:40.954Z,11.90
2022-12-31T05:14:44.427Z,11.90
2022-12-31T05:15:47.646Z,11.90
2022-12-31T05:16:49.766Z,11.90
2022-12-31T05:17:51.715Z,11.90
2022-12-31T05:18:54.371Z,11.90
2022-12-31T05:19:56.333Z,11.90
2022-12-31T05:20:58.384Z,11.90
2022-12-31T05:22:19.190Z,11.80
2022-12-31T05:23:21.697Z,11.90
2022-12-31T05:24:23.696Z,11.80
2022-12-31T05:25:25.716Z,11.80
2022-12-31T05:26:27.710Z,11.80
2022-12-31T05:27:31.211Z,11.80
2022-12-31T05:28:33.505Z,11.80
2022-12-31T05:29:35.495Z,11.80
2022-12-31T05:30:37.685Z,11.80
2022-12-31T05:31:39.807Z,11.80
2022-12-31T05:32:41.866Z,11.80
2022-12-31T05:33:43.890Z,11.90
2022-12-31T05:34:45.953Z,11.90
2022-12-31T05:35:47.990Z,11.90
2022-12-31T05:36:49.960Z,11.80
2022-12-31T05:37:51.990Z,11.80
2022-12-31T05:38:53.965Z,11.80
2022-12-31T05:39:56.147Z,11.70
2022-12-31T05:41:04.009Z,11.70
2022-12-31T05:42:06.034Z,11.60
2022-12-31T05:43:07.997Z,11.50
2022-12-31T05:44:11.047Z,11.50
2022-12-31T05:45:13.571Z,11.50
2022-12-31T05:46:16.340Z,11.40
2022-12-31T05:47:18.852Z,11.40
2022-12-31T05:48:21.037Z,11.40
2022-12-31T05:49:23.051Z,11.40
2022-12-31T05:50:25.370Z,11.50
2022-12-31T05:51:31.219Z,11.50
2022-12-31T05:52:33.240Z,11.50
2022-12-31T05:53:35.295Z,11.50
2022-12-31T05:54:37.604Z,11.50
2022-12-31T05:55:41.349Z,11.50
2022-12-31T05:56:43.286Z,11.50
2022-12-31T05:57:46.885Z,11.50
2022-12-31T05:58:48.916Z,11.50
2022-12-31T05:59:53.539Z,11.50
2022-12-31T06:00:55.608Z,11.50
2022-12-31T06:01:58.128Z,11.40
2022-12-31T06:03:00.193Z,11.40
2022-12-31T06:04:02.357Z,11.50
2022-12-31T06:05:05.805Z,11.50
2022-12-31T06:06:08.603Z,11.40
2022-12-31T06:07:10.683Z,11.50
2022-12-31T06:08:12.949Z,11.40
2022-12-31T06:09:17.104Z,11.40
2022-12-31T06:10:19.098Z,11.50
2022-12-31T06:11:21.108Z,11.50
2022-12-31T06:12:23.859Z,11.50
2022-12-31T06:13:25.979Z,11.50
2022-12-31T06:14:27.952Z,11.50
2022-12-31T06:15:30.083Z,11.50
2022-12-31T06:16:32.303Z,11.50
2022-12-31T06:17:35.732Z,11.50
2022-12-31T06:18:38.090Z,11.50
2022-12-31T06:19:40.054Z,11.50
2022-12-31T06:20:42.264Z,11.60
2022-12-31T06:21:44.271Z,11.60
2022-12-31T06:22:46.781Z,11.60
2022-12-31T06:23:49.105Z,11.60
2022-12-31T06:24:51.124Z,11.70
2022-12-31T06:25:53.202Z,11.70
2022-12-31T06:26:55.330Z,11.70
2022-12-31T06:27:57.401Z,11.70
2022-12-31T06:28:59.437Z,11.70
2022-12-31T06:30:01.428Z,11.70
2022-12-31T06:31:05.994Z,11.70
2022-12-31T06:32:07.998Z,11.70
2022-12-31T06:33:10.595Z,11.60
2022-12-31T06:34:12.683Z,11.60
2022-12-31T06:35:14.770Z,11.60
2022-12-31T06:36:17.267Z,11.60
2022-12-31T06:37:19.368Z,11.60
2022-12-31T06:38:21.424Z,11.60
2022-12-31T06:39:23.553Z,11.60
2022-12-31T06:40:25.598Z,11.60
2022-12-31T06:41:27.592Z,11.60
2022-12-31T06:42:31.075Z,11.60
2022-12-31T06:43:35.053Z,11.60
2022-12-31T06:44:37.964Z,11.70
2022-12-31T06:45:39.967Z,11.70
2022-12-31T06:46:42.262Z,11.70
2022-12-31T06:47:44.434Z,11.70
2022-12-31T06:48:46.504Z,11.70
2022-12-31T06:49:48.614Z,11.70
2022-12-31T06:50:50.588Z,11.70
2022-12-31T06:51:53.245Z,11.70
2022-12-31T06:52:55.319Z,11.80
2022-12-31T06:53:57.281Z,11.80
2022-12-31T06:55:01.805Z,11.80
2022-12-31T06:56:08.883Z,11.80
2022-12-31T06:57:11.270Z,11.80
2022-12-31T06:58:17.365Z,11.80
2022-12-31T06:59:29.761Z,11.80
2022-12-31T07:00:31.907Z,11.80
2022-12-31T07:01:39.734Z,11.80
2022-12-31T07:03:01.728Z,11.80
2022-12-31T07:04:15.929Z,11.80
2022-12-31T07:05:47.536Z,11.80
2022-12-31T07:07:00.887Z,11.90
2022-12-31T07:08:05.847Z,11.90
2022-12-31T07:09:11.765Z,11.90
2022-12-31T07:10:30.607Z,11.90
2022-12-31T07:11:52.845Z,11.90
2022-12-31T07:13:28.293Z,11.90
2022-12-31T07:14:59.181Z,11.90
2022-12-31T07:16:42.708Z,11.80
2022-12-31T07:18:29.247Z,11.90
2022-12-31T07:19:34.352Z,11.90
2022-12-31T07:20:36.642Z,11.90
2022-12-31T07:21:41.345Z,12.00
2022-12-31T07:22:44.277Z,12.00
2022-12-31T07:23:46.513Z,12.00
2022-12-31T07:24:48.786Z,12.10
2022-12-31T07:26:11.033Z,12.10
2022-12-31T07:27:25.824Z,12.10
2022-12-31T07:28:38.782Z,12.10
2022-12-31T07:30:01.830Z,12.10
2022-12-31T07:31:12.495Z,12.10
2022-12-31T07:32:38.901Z,12.10
2022-12-31T07:34:08.532Z,12.10
2022-12-31T07:35:57.071Z,12.10
2022-12-31T07:37:30.800Z,12.10
2022-12-31T07:38:38.690Z,12.10
2022-12-31T07:40:03.906Z,12.20
2022-12-31T07:41:24.093Z,12.20
2022-12-31T07:42:33.258Z,12.30
2022-12-31T07:44:05.609Z,12.30
2022-12-31T07:45:34.517Z,12.40
2022-12-31T07:46:41.399Z,12.40
2022-12-31T07:47:43.906Z,12.50
2022-12-31T07:48:46.163Z,12.50
2022-12-31T07:49:48.573Z,12.60
2022-12-31T07:50:52.521Z,12.60
2022-12-31T07:51:55.013Z,12.60
2022-12-31T07:52:57.287Z,12.70
2022-12-31T07:53:59.404Z,12.70
2022-12-31T07:55:01.434Z,12.80
2022-12-31T07:56:07.393Z,13.00
2022-12-31T07:57:14.144Z,13.10
2022-12-31T07:58:22.753Z,13.40
2022-12-31T07:59:44.095Z,13.60
2022-12-31T08:00:46.686Z,13.80
2022-12-31T08:01:48.868Z,14.10
2022-12-31T08:02:51.002Z,14.30
2022-12-31T08:03:58.959Z,14.50
2022-12-31T08:05:12.685Z,14.70
2022-12-31T08:06:36.010Z,15.00
2022-12-31T08:07:50.903Z,15.20
2022-12-31T08:09:09.155Z,15.50
2022-12-31T08:10:21.230Z,15.70
2022-12-31T08:11:28.501Z,15.80
2022-12-31T08:12:35.099Z,15.90
2022-12-31T08:13:38.099Z,16.00
2022-12-31T08:14:44.875Z,16.10
2022-12-31T08:15:47.118Z,16.30
2022-12-31T08:16:49.670Z,16.40
2022-12-31T08:17:52.008Z,16.40
2022-12-31T08:18:54.325Z,16.30
2022-12-31T08:19:56.686Z,16.30
2022-12-31T08:21:01.690Z,16.40
2022-12-31T08:22:28.557Z,16.50
2022-12-31T08:23:47.634Z,16.50
2022-12-31T08:25:20.614Z,16.60
2022-12-31T08:27:03.699Z,16.70
2022-12-31T08:28:43.223Z,16.80
2022-12-31T08:29:51.883Z,16.90
2022-12-31T08:30:58.549Z,17.00
2022-12-31T08:32:14.459Z,17.10
2022-12-31T08:33:32.491Z,17.20
2022-12-31T08:34:46.533Z,17.40
2022-12-31T08:36:11.042Z,17.60
2022-12-31T08:37:39.291Z,17.70
2022-12-31T08:39:03.045Z,17.70
2022-12-31T08:40:29.112Z,17.70
2022-12-31T08:41:43.143Z,17.70
2022-12-31T08:43:00.637Z,17.70
2022-12-31T08:44:22.030Z,17.80
2022-12-31T08:45:31.667Z,17.90
2022-12-31T08:47:08.042Z,17.90
2022-12-31T08:48:41.911Z,18.00
2022-12-31T08:49:44.253Z,18.10
2022-12-31T08:50:47.105Z,18.30
2022-12-31T08:51:49.352Z,18.40
2022-12-31T08:52:51.624Z,18.40
2022-12-31T08:53:55.386Z,18.40
2022-12-31T08:54:57.797Z,18.30
2022-12-31T08:56:10.395Z,18.30
2022-12-31T08:57:21.516Z,18.40
2022-12-31T08:58:29.639Z,18.50
2022-12-31T09:00:08.413Z,18.60
2022-12-31T09:01:12.699Z,18.70
2022-12-31T09:02:20.953Z,18.80
2022-12-31T09:04:07.767Z,18.90
2022-12-31T09:05:12.614Z,19.00
2022-12-31T09:06:31.187Z,19.00
2022-12-31T09:07:39.368Z,19.10
2022-12-31T09:08:51.168Z,19.20
2022-12-31T09:10:08.513Z,19.20
2022-12-31T09:11:22.875Z,19.30
2022-12-31T09:12:49.748Z,19.30
2022-12-31T09:14:16.124Z,19.50
2022-12-31T09:15:40.940Z,19.70
2022-12-31T09:16:48.174Z,19.70
2022-12-31T09:17:51.297Z,19.90
2022-12-31T09:18:53.306Z,19.90
2022-12-31T09:19:55.632Z,19.80
2022-12-31T09:20:58.339Z,19.70
2022-12-31T09:22:00.596Z,19.80
2022-12-31T09:23:04.351Z,19.90
2022-12-31T09:24:09.453Z,20.10
2022-12-31T09:25:20.027Z,20.20
2022-12-31T09:26:37.650Z,20.40
2022-12-31T09:28:03.636Z,20.50
2022-12-31T09:29:17.867Z,20.70
2022-12-31T09:30:20.390Z,20.70
2022-12-31T09:31:35.676Z,20.70
2022-12-31T09:33:14.851Z,20.70
2022-12-31T09:34:29.661Z,20.80
2022-12-31T09:36:06.849Z,20.70
2022-12-31T09:37:25.432Z,20.60
2022-12-31T09:39:19.742Z,20.50
2022-12-31T09:40:48.104Z,20.50
2022-12-31T09:42:23.753Z,20.60
2022-12-31T09:43:47.830Z,20.70
2022-12-31T09:45:16.999Z,20.70
2022-12-31T09:46:57.587Z,20.70
2022-12-31T09:48:28.776Z,20.80
2022-12-31T09:49:36.756Z,20.80
2022-12-31T09:51:02.958Z,20.80
2022-12-31T09:52:30.919Z,20.90
2022-12-31T09:53:39.206Z,21.00
2022-12-31T09:54:54.220Z,21.10
2022-12-31T09:56:23.521Z,21.20
2022-12-31T09:57:53.995Z,21.20
2022-12-31T09:59:20.758Z,21.10
2022-12-31T10:00:31.052Z,21.10
2022-12-31T10:01:33.135Z,21.20
2022-12-31T10:03:13.392Z,21.30
2022-12-31T10:04:40.887Z,21.50
2022-12-31T10:06:00.616Z,21.70
2022-12-31T10:07:14.857Z,21.90
2022-12-31T10:08:48.097Z,21.90
2022-12-31T10:10:08.587Z,22.00
2022-12-31T10:11:31.214Z,22.20
2022-12-31T10:12:39.792Z,22.20
2022-12-31T10:14:03.496Z,22.30
2022-12-31T10:15:15.839Z,22.40
2022-12-31T10:16:32.183Z,22.50
2022-12-31T10:18:03.202Z,22.50
2022-12-31T10:19:44.958Z,22.50
2022-12-31T10:21:11.198Z,22.60
2022-12-31T10:22:57.836Z,22.60
2022-12-31T10:24:18.766Z,22.60
2022-12-31T10:26:07.893Z,22.80
2022-12-31T10:27:14.318Z,23.00
2022-12-31T10:28:25.239Z,23.10
2022-12-31T10:29:47.707Z,23.10
2022-12-31T10:30:59.429Z,23.00
2022-12-31T10:32:31.686Z,23.00
2022-12-31T10:33:43.284Z,22.90
2022-12-31T10:34:56.414Z,22.80
2022-12-31T10:36:15.231Z,22.80
2022-12-31T10:37:38.789Z,22.80
2022-12-31T10:39:16.346Z,22.70
2022-12-31T10:40:45.417Z,22.40
2022-12-31T10:41:59.077Z,22.20
2022-12-31T10:43:25.488Z,22.10
2022-12-31T10:44:47.686Z,22.20
2022-12-31T10:46:35.560Z,22.40
2022-12-31T10:48:15.767Z,22.50
2022-12-31T10:50:02.519Z,22.50
2022-12-31T10:51:25.895Z,22.80
2022-12-31T10:53:15.556Z,22.90
2022-12-31T10:54:54.872Z,23.00
2022-12-31T10:56:19.960Z,23.10
2022-12-31T10:57:52.851Z,23.10
2022-12-31T10:59:22.232Z,23.20
2022-12-31T11:00:27.230Z,23.20
2022-12-31T11:02:07.360Z,23.20
2022-12-31T11:03:29.308Z,23.20
2022-12-31T11:04:55.979Z,23.30
2022-12-31T11:06:23.359Z,23.00
2022-12-31T11:07:43.629Z,23.10
2022-12-31T11:09:09.160Z,22.90
2022-12-31T11:10:31.238Z,22.60
2022-12-31T11:11:55.755Z,22.20
2022-12-31T11:13:00.965Z,22.00
2022-12-31T11:14:45.409Z,22.00
2022-12-31T11:15:56.523Z,22.20
2022-12-31T11:17:12.607Z,22.30
2022-12-31T11:18:23.809Z,22.50
2022-12-31T11:20:03.562Z,22.70
2022-12-31T11:21:16.241Z,22.90
2022-12-31T11:22:33.403Z,22.90
2022-12-31T11:24:17.644Z,23.00
2022-12-31T11:25:29.634Z,23.10
2022-12-31T11:26:46.901Z,22.90
2022-12-31T11:28:04.682Z,22.70
2022-12-31T11:29:18.791Z,22.70
2022-12-31T11:30:34.000Z,22.70
2022-12-31T11:31:42.888Z,22.60
2022-12-31T11:32:56.185Z,22.60
2022-12-31T11:34:34.413Z,22.50
2022-12-31T11:36:14.045Z,22.30
2022-12-31T11:37:34.001Z,22.20
2022-12-31T11:39:01.339Z,22.50
2022-12-31T11:40:44.125Z,22.50
2022-12-31T11:42:24.125Z,22.30
2022-12-31T11:44:16.438Z,22.40
2022-12-31T11:45:54.085Z,22.60
2022-12-31T11:47:24.062Z,22.60
2022-12-31T11:49:02.865Z,22.70
2022-12-31T11:50:15.330Z,22.60
2022-12-31T11:51:48.457Z,22.40
2022-12-31T11:53:24.188Z,22.20
2022-12-31T11:54:42.515Z,21.90
2022-12-31T11:55:47.549Z,21.60
2022-12-31T11:57:22.519Z,21.40
2022-12-31T11:58:28.784Z,21.30
2022-12-31T11:59:31.240Z,21.20
2022-12-31T12:00:33.747Z,21.10
2022-12-31T12:02:03.383Z,21.00
2022-12-31T12:03:07.302Z,20.90
2022-12-31T12:04:11.051Z,21.00
2022-12-31T12:05:17.146Z,21.10
2022-12-31T12:06:27.607Z,21.30
2022-12-31T12:07:31.468Z,21.60
2022-12-31T12:08:34.660Z,21.70
2022-12-31T12:09:36.704Z,21.80
2022-12-31T12:10:45.450Z,21.80
2022-12-31T12:12:02.558Z,21.90
2022-12-31T12:13:30.732Z,22.10
2022-12-31T12:14:36.286Z,22.40
2022-12-31T12:15:38.398Z,22.60
2022-12-31T12:16:40.551Z,22.70
2022-12-31T12:17:45.744Z,22.70
2022-12-31T12:19:04.927Z,22.90
2022-12-31T12:20:20.541Z,23.00
2022-12-31T12:21:25.317Z,23.10
2022-12-31T12:22:29.738Z,23.10
2022-12-31T12:23:32.970Z,22.90
2022-12-31T12:24:34.963Z,22.80
2022-12-31T12:25:39.998Z,22.90
2022-12-31T12:26:44.529Z,22.90
2022-12-31T12:27:47.177Z,22.90
2022-12-31T12:28:49.218Z,23.00
2022-12-31T12:29:51.276Z,23.00
2022-12-31T12:31:02.851Z,23.00
2022-12-31T12:32:18.229Z,22.80
2022-12-31T12:33:21.704Z,22.70
2022-12-31T12:34:26.786Z,22.60
2022-12-31T12:35:34.300Z,22.70
2022-12-31T12:36:46.977Z,22.90
2022-12-31T12:37:59.397Z,23.00
2022-12-31T12:39:06.224Z,23.10
2022-12-31T12:40:33.898Z,23.10
2022-12-31T12:41:36.466Z,23.10
2022-12-31T12:42:52.170Z,23.00
2022-12-31T12:44:09.019Z,22.90
2022-12-31T12:45:16.992Z,22.90
2022-12-31T12:46:22.322Z,23.00
2022-12-31T12:47:26.359Z,23.00
2022-12-31T12:48:39.030Z,23.00
2022-12-31T12:49:49.356Z,23.00
2022-12-31T12:50:52.459Z,22.90
2022-12-31T12:52:27.926Z,22.90
2022-12-31T12:53:42.031Z,22.80
2022-12-31T12:54:59.890Z,22.80
2022-12-31T12:56:31.261Z,23.00
2022-12-31T12:57:43.052Z,23.10
2022-12-31T12:59:17.437Z,23.10
2022-12-31T13:00:29.702Z,23.10
2022-12-31T13:01:59.710Z,23.20
2022-12-31T13:03:29.088Z,23.10
2022-12-31T13:04:41.527Z,23.00
2022-12-31T13:05:43.621Z,23.00
2022-12-31T13:07:11.417Z,23.00
2022-12-31T13:08:22.827Z,23.00
2022-12-31T13:09:54.666Z,23.10
2022-12-31T13:11:02.711Z,23.00
2022-12-31T13:12:08.116Z,23.00
2022-12-31T13:13:26.265Z,23.00
2022-12-31T13:15:05.577Z,23.10
2022-12-31T13:16:22.430Z,23.00
2022-12-31T13:18:03.249Z,22.90
2022-12-31T13:19:13.406Z,22.70
2022-12-31T13:20:31.571Z,22.60
2022-12-31T13:21:44.942Z,22.60
2022-12-31T13:23:15.257Z,22.70
2022-12-31T13:24:35.869Z,22.70
2022-12-31T13:25:59.606Z,22.70
2022-12-31T13:27:26.261Z,22.60
2022-12-31T13:28:30.608Z,22.60
2022-12-31T13:29:35.189Z,22.50
2022-12-31T13:30:43.149Z,22.50
2022-12-31T13:31:48.024Z,22.40
2022-12-31T13:33:04.395Z,22.20
2022-12-31T13:34:17.291Z,22.10
2022-12-31T13:35:29.279Z,21.90
2022-12-31T13:36:35.322Z,21.90
2022-12-31T13:37:40.761Z,21.60
2022-12-31T13:38:49.995Z,21.50
2022-12-31T13:40:16.807Z,21.40
2022-12-31T13:41:34.375Z,21.20
2022-12-31T13:43:16.050Z,20.90
2022-12-31T13:44:40.027Z,20.60
2022-12-31T13:45:45.104Z,20.40
2022-12-31T13:47:03.157Z,20.20
2022-12-31T13:48:16.682Z,20.10
2022-12-31T13:49:42.195Z,19.90
2022-12-31T13:51:00.809Z,19.80
2022-12-31T13:52:27.196Z,19.70
2022-12-31T13:55:58.010Z,19.40
2022-12-31T13:57:05.197Z,19.30
2022-12-31T13:58:27.878Z,19.20
2022-12-31T13:59:37.608Z,19.10
2022-12-31T14:00:53.127Z,19.00
2022-12-31T14:02:01.919Z,19.00
2022-12-31T14:03:15.678Z,18.80
2022-12-31T14:04:21.539Z,18.80
2022-12-31T14:05:47.345Z,18.70
2022-12-31T14:07:13.620Z,18.70
2022-12-31T14:08:16.199Z,18.70
2022-12-31T14:09:24.998Z,18.70
2022-12-31T14:10:53.069Z,18.60
2022-12-31T14:12:19.183Z,18.60
2022-12-31T14:13:39.401Z,18.60
2022-12-31T14:14:48.178Z,18.50
2022-12-31T14:16:20.833Z,18.50
2022-12-31T14:17:43.734Z,18.50
2022-12-31T14:19:13.954Z,18.50
2022-12-31T14:20:37.218Z,18.50
2022-12-31T14:21:48.085Z,18.50
2022-12-31T14:23:18.834Z,18.40
2022-12-31T14:24:44.987Z,18.40
2022-12-31T14:25:53.628Z,18.40
2022-12-31T14:27:00.722Z,18.40
2022-12-31T14:28:05.859Z,18.30
2022-12-31T14:29:11.035Z,18.40
2022-12-31T14:30:21.959Z,18.40
2022-12-31T14:31:44.240Z,18.30
2022-12-31T14:33:18.587Z,18.30
2022-12-31T14:34:39.334Z,18.30
2022-12-31T14:36:08.284Z,18.30
2022-12-31T14:37:23.308Z,18.30
2022-12-31T14:38:42.591Z,18.20
2022-12-31T14:40:21.131Z,18.30
2022-12-31T14:41:33.165Z,18.20
2022-12-31T14:42:56.809Z,18.20
2022-12-31T14:44:18.732Z,18.20
2022-12-31T14:45:21.004Z,18.20
2022-12-31T14:46:38.383Z,18.20
2022-12-31T14:47:55.167Z,18.20
2022-12-31T14:49:34.824Z,18.10
2022-12-31T14:50:37.874Z,18.10
2022-12-31T14:51:39.994Z,18.10
2022-12-31T14:52:50.482Z,18.10
2022-12-31T14:54:00.362Z,18.00
2022-12-31T14:55:24.717Z,18.00
2022-12-31T14:56:40.318Z,18.00
2022-12-31T14:58:25.804Z,18.00
2022-12-31T14:59:40.829Z,18.00
2022-12-31T15:00:58.972Z,18.00
2022-12-31T15:02:01.718Z,18.00
2022-12-31T15:03:07.120Z,18.00
2022-12-31T15:04:15.196Z,18.00
2022-12-31T15:05:21.321Z,18.00
2022-12-31T15:06:23.322Z,18.00
2022-12-31T15:07:40.740Z,18.00
2022-12-31T15:09:17.601Z,18.00
2022-12-31T15:10:57.291Z,18.00
2022-12-31T15:12:20.557Z,18.00
2022-12-31T15:13:38.750Z,18.00
2022-12-31T15:15:11.804Z,17.90
2022-12-31T15:16:20.025Z,17.90
2022-12-31T15:17:59.434Z,17.90
2022-12-31T15:19:33.703Z,17.80
2022-12-31T15:21:08.611Z,17.80
2022-12-31T15:22:29.216Z,17.80
2022-12-31T15:23:42.395Z,17.70
2022-12-31T15:24:46.982Z,17.60